createdAt,value
2022-09-20T12:12:52.508Z,99418.00
2022-09-20T12:15:27.694Z,99409.75
2022-09-20T12:18:29.464Z,99421.81
2022-09-20T12:21:06.376Z,99426.81
2022-09-20T12:24:20.139Z,99419.72
2022-09-20T12:26:53.164Z,99415.84
2022-09-20T12:30:03.387Z,99427.78
2022-09-20T12:32:54.181Z,99427.38
2022-09-20T12:36:01.144Z,99422.97
2022-09-20T12:38:38.344Z,99420.47
2022-09-20T12:41:15.018Z,99411.66
2022-09-20T12:43:56.368Z,99424.88
2022-09-20T12:46:38.363Z,99415.47
2022-09-20T12:49:59.836Z,99417.78
2022-09-20T12:52:55.609Z,99420.91
2022-09-20T12:55:40.651Z,99419.44
2022-09-20T12:58:24.343Z,99426.53
2022-09-20T13:01:27.442Z,99420.91
2022-09-20T13:04:37.619Z,99418.84
2022-09-20T13:07:34.962Z,99415.34
2022-09-20T13:10:17.752Z,99412.78
2022-09-20T13:12:53.862Z,99401.31
2022-09-20T13:15:25.172Z,99410.72
2022-09-20T13:18:00.725Z,99402.66
2022-09-20T13:20:35.033Z,99405.63
2022-09-20T13:23:06.498Z,99411.00
2022-09-20T13:25:40.321Z,99391.88
2022-09-20T13:28:28.860Z,99393.78
2022-09-20T13:31:33.789Z,99397.59
2022-09-20T13:34:15.842Z,99398.47
2022-09-20T13:36:47.930Z,99401.94
2022-09-20T13:39:35.130Z,99399.69
2022-09-20T13:42:11.661Z,99403.81
2022-09-20T13:44:44.811Z,99407.56
2022-09-20T13:47:27.614Z,99403.13
2022-09-20T13:50:11.650Z,99391.00
2022-09-20T13:52:48.146Z,99395.00
2022-09-20T13:55:29.938Z,99403.81
2022-09-20T13:58:03.980Z,99404.84
2022-09-20T14:00:34.877Z,99403.53
2022-09-20T14:03:05.911Z,99406.47
2022-09-20T14:05:36.012Z,99405.84
2022-09-20T14:08:07.574Z,99407.31
2022-09-20T14:10:42.977Z,99402.31
2022-09-20T14:13:17.742Z,99398.94
2022-09-20T14:15:51.077Z,99392.72
2022-09-20T14:18:23.271Z,99393.41
2022-09-20T14:20:55.388Z,99396.72
2022-09-20T14:23:28.936Z,99400.69
2022-09-20T14:26:10.287Z,99402.50
2022-09-20T14:28:40.100Z,99404.75
2022-09-20T14:31:15.550Z,99409.34
2022-09-20T14:33:54.971Z,99396.78
2022-09-20T14:36:27.711Z,99384.91
2022-09-20T14:39:04.042Z,99398.47
2022-09-20T14:41:36.947Z,99399.28
2022-09-20T14:44:19.031Z,99402.66
2022-09-20T14:46:49.048Z,99411.38
2022-09-20T14:49:32.863Z,99400.94
2022-09-20T14:52:39.074Z,99410.47
2022-09-20T14:55:21.655Z,99411.84
2022-09-20T14:57:51.582Z,99412.50
2022-09-20T15:00:21.625Z,99404.63
2022-09-20T15:02:52.086Z,99407.59
2022-09-20T15:05:26.149Z,99391.28
2022-09-20T15:07:57.725Z,99414.00
2022-09-20T15:10:30.485Z,99407.13
2022-09-20T15:13:01.678Z,99405.84
2022-09-20T15:15:31.967Z,99411.09
2022-09-20T15:18:01.903Z,99392.56
2022-09-20T15:20:32.023Z,99410.97
2022-09-20T15:23:02.753Z,99410.50
2022-09-20T15:25:35.371Z,99413.00
2022-09-20T15:28:05.230Z,99413.91
2022-09-20T15:30:35.149Z,99423.66
2022-09-20T15:33:05.158Z,99422.41
2022-09-20T15:35:36.718Z,99430.34
2022-09-20T15:38:08.955Z,99431.53
2022-09-20T15:40:41.767Z,99439.19
2022-09-20T15:43:16.434Z,99438.31
2022-09-20T15:45:50.602Z,99443.50
2022-09-20T15:48:22.259Z,99430.06
2022-09-20T15:51:03.222Z,99452.78
2022-09-20T15:53:35.250Z,99445.44
2022-09-20T15:56:16.315Z,99446.03
2022-09-20T15:58:47.875Z,99454.09
2022-09-20T16:01:19.036Z,99450.94
2022-09-20T16:03:51.160Z,99447.94
2022-09-20T16:06:21.170Z,99416.06
2022-09-20T16:08:54.273Z,99454.34
2022-09-20T16:11:27.880Z,99460.75
2022-09-20T16:14:00.851Z,99471.78
2022-09-20T16:16:40.421Z,99471.34
2022-09-20T16:19:23.744Z,99474.63
2022-09-20T16:21:58.061Z,99488.69
2022-09-20T16:24:30.186Z,99479.66
2022-09-20T16:27:03.419Z,99491.31
2022-09-20T16:29:34.865Z,99487.50
2022-09-20T16:32:05.471Z,99474.09
2022-09-20T16:34:36.956Z,99492.06
2022-09-20T16:37:11.826Z,99499.06
2022-09-20T16:39:42.040Z,99503.81
2022-09-20T16:42:13.599Z,99505.97
2022-09-20T16:44:44.082Z,99486.91
2022-09-20T16:47:18.262Z,99512.88
2022-09-20T16:49:50.342Z,99518.00
2022-09-20T16:52:20.597Z,99522.75
2022-09-20T16:54:50.733Z,99524.91
2022-09-20T16:57:23.235Z,99526.97
2022-09-20T16:59:55.777Z,99526.88
2022-09-20T17:02:25.526Z,99532.28
2022-09-20T17:04:55.390Z,99537.19
2022-09-20T17:07:25.330Z,99537.38
2022-09-20T17:10:01.272Z,99541.19
2022-09-20T17:12:34.698Z,99550.63
2022-09-20T17:15:05.487Z,99548.84
2022-09-20T17:17:35.450Z,99559.16
2022-09-20T17:20:07.366Z,99561.03
2022-09-20T17:22:37.656Z,99547.75
2022-09-20T17:25:08.567Z,99557.31
2022-09-20T17:27:39.852Z,99558.16
2022-09-20T17:30:11.115Z,99563.19
2022-09-20T17:32:48.237Z,99562.91
2022-09-20T17:35:18.582Z,99577.91
2022-09-20T17:37:48.388Z,99578.91
2022-09-20T17:40:18.124Z,99580.50
2022-09-20T17:42:49.636Z,99577.03
2022-09-20T17:45:19.848Z,99578.41
2022-09-20T17:47:49.568Z,99584.09
2022-09-20T17:50:20.507Z,99584.44
2022-09-20T17:52:53.530Z,99581.56
2022-09-20T17:55:24.342Z,99592.38
2022-09-20T17:57:56.084Z,99591.66
2022-09-20T18:00:26.323Z,99594.28
2022-09-20T18:02:59.557Z,99599.03
2022-09-20T18:05:32.486Z,99595.16
2022-09-20T18:08:03.328Z,99592.88
2022-09-20T18:10:33.777Z,99595.75
2022-09-20T18:13:07.041Z,99595.97
2022-09-20T18:15:37.058Z,99599.38
2022-09-20T18:18:08.358Z,99603.25
2022-09-20T18:20:39.235Z,99603.94
2022-09-20T18:23:09.145Z,99608.91
2022-09-20T18:25:53.184Z,99613.31
2022-09-20T18:28:25.443Z,99617.38
2022-09-20T18:31:03.322Z,99617.78
2022-09-20T18:33:33.728Z,99613.06
2022-09-20T18:36:07.006Z,99619.19
2022-09-20T18:38:45.584Z,99618.84
2022-09-20T18:41:15.591Z,99620.22
2022-09-20T18:43:48.040Z,99619.69
2022-09-20T18:46:19.392Z,99621.66
2022-09-20T18:48:50.386Z,99630.09
2022-09-20T18:51:21.056Z,99613.00
2022-09-20T18:53:51.721Z,99628.56
2022-09-20T18:56:24.107Z,99629.25
2022-09-20T18:58:56.902Z,99635.06
2022-09-20T19:01:59.579Z,99634.44
2022-09-20T19:04:58.317Z,99634.16
2022-09-20T19:07:42.285Z,99629.63
2022-09-20T19:10:23.724Z,99635.13
2022-09-20T19:13:01.841Z,99641.75
2022-09-20T19:15:53.246Z,99641.44
2022-09-20T19:18:44.216Z,99647.66
2022-09-20T19:21:23.000Z,99649.69
2022-09-20T19:24:06.347Z,99646.84
2022-09-20T19:26:38.588Z,99650.69
2022-09-20T19:29:18.841Z,99647.81
2022-09-20T19:31:51.879Z,99648.34
2022-09-20T19:34:24.161Z,99649.53
2022-09-20T19:37:05.354Z,99647.91
2022-09-20T19:39:50.843Z,99657.34
2022-09-20T19:42:28.660Z,99650.13
2022-09-20T19:45:10.352Z,99657.69
2022-09-20T19:47:51.083Z,99649.59
2022-09-20T19:50:29.489Z,99656.66
2022-09-20T19:53:00.372Z,99656.00
2022-09-20T19:55:31.114Z,99657.19
2022-09-20T19:58:02.099Z,99655.53
2022-09-20T20:00:32.504Z,99661.59
2022-09-20T20:03:04.399Z,99661.44
2022-09-20T20:05:34.852Z,99666.84
2022-09-20T20:08:17.431Z,99669.72
2022-09-20T20:11:02.728Z,99671.41
2022-09-20T20:13:55.455Z,99674.28
2022-09-20T20:16:37.365Z,99683.06
2022-09-20T20:19:25.176Z,99670.13
2022-09-20T20:21:59.616Z,99670.13
2022-09-20T20:24:38.138Z,99670.97
2022-09-20T20:27:07.983Z,99677.88
2022-09-20T20:29:38.073Z,99675.53
2022-09-20T20:32:08.149Z,99680.41
2022-09-20T20:34:39.324Z,99680.88
2022-09-20T20:37:10.302Z,99689.13
2022-09-20T20:39:40.533Z,99689.47
2022-09-20T20:42:12.962Z,99684.25
2022-09-20T20:44:42.832Z,99686.44
2022-09-20T20:47:12.623Z,99683.59
2022-09-20T20:49:43.771Z,99681.53
2022-09-20T20:52:13.970Z,99684.28
2022-09-20T20:54:43.714Z,99695.69
2022-09-20T20:57:15.772Z,99693.53
2022-09-20T20:59:45.799Z,99694.53
2022-09-20T21:02:15.851Z,99693.19
2022-09-20T21:04:47.296Z,99692.34
2022-09-20T21:07:18.086Z,99696.91
2022-09-20T21:09:47.979Z,99692.16
2022-09-20T21:12:18.472Z,99687.81
2022-09-20T21:14:48.251Z,99689.66
2022-09-20T21:17:18.038Z,99689.66
2022-09-20T21:19:49.995Z,99683.94
2022-09-20T21:22:19.787Z,99685.44
2022-09-20T21:24:50.857Z,99691.50
2022-09-20T21:27:20.941Z,99694.88
2022-09-20T21:29:50.837Z,99694.53
2022-09-20T21:32:21.393Z,99689.16
2022-09-20T21:34:54.260Z,99689.50
2022-09-20T21:37:24.070Z,99684.13
2022-09-20T21:39:54.618Z,99681.59
2022-09-20T21:42:27.228Z,99677.03
2022-09-20T21:44:57.001Z,99665.09
2022-09-20T21:47:26.753Z,99666.25
2022-09-20T21:49:57.956Z,99662.56
2022-09-20T21:52:29.441Z,99664.09
2022-09-20T21:54:59.129Z,99670.81
2022-09-20T21:57:29.129Z,99672.50
2022-09-20T21:59:58.973Z,99676.88
2022-09-20T22:02:29.609Z,99671.16
2022-09-20T22:05:00.717Z,99673.66
2022-09-20T22:07:30.575Z,99679.22
2022-09-20T22:10:00.507Z,99680.41
2022-09-20T22:12:30.385Z,99676.31
2022-09-20T22:15:00.943Z,99677.31
2022-09-20T22:17:30.692Z,99681.19
2022-09-20T22:20:03.412Z,99675.31
2022-09-20T22:22:33.528Z,99677.97
2022-09-20T22:25:03.658Z,99673.44
2022-09-20T22:27:33.410Z,99677.47
2022-09-20T22:30:05.084Z,99687.06
2022-09-20T22:32:35.406Z,99679.78
2022-09-20T22:35:07.372Z,99681.44
2022-09-20T22:37:37.143Z,99678.09
2022-09-20T22:40:07.571Z,99679.78
2022-09-20T22:42:37.371Z,99676.22
2022-09-20T22:45:08.305Z,99681.78
2022-09-20T22:47:39.375Z,99685.41
2022-09-20T22:50:10.851Z,99691.81
2022-09-20T22:52:40.531Z,99645.19
2022-09-20T22:55:10.848Z,99694.19
2022-09-20T22:57:40.656Z,99694.66
2022-09-20T23:00:11.858Z,99695.50
2022-09-20T23:02:42.158Z,99686.25
2022-09-20T23:05:14.566Z,99690.56
2022-09-20T23:07:44.308Z,99684.22
2022-09-20T23:10:14.247Z,99686.25
2022-09-20T23:12:44.287Z,99685.25
2022-09-20T23:15:14.219Z,99684.88
2022-09-20T23:17:44.511Z,99683.66
2022-09-20T23:20:15.763Z,99682.69
2022-09-20T23:22:45.776Z,99682.84
2022-09-20T23:25:15.912Z,99680.97
2022-09-20T23:27:45.872Z,99690.69
2022-09-20T23:30:15.990Z,99689.66
2022-09-20T23:32:45.839Z,99693.88
2022-09-20T23:35:17.066Z,99698.53
2022-09-20T23:37:46.799Z,99697.84
2022-09-20T23:40:17.111Z,99696.16
2022-09-20T23:42:46.933Z,99684.94
2022-09-20T23:45:16.849Z,99689.34
2022-09-20T23:47:48.623Z,99692.81
2022-09-20T23:50:20.148Z,99694.78
2022-09-20T23:52:49.888Z,99686.88
2022-09-20T23:55:19.739Z,99691.09
2022-09-20T23:57:50.716Z,99678.34
